Virginiborg — PBDL — position and weather

sailwx.info

Track history (hours):
 
Tides and Currents Weather Stations Pressure Air Temp Water Temp Dewpoint Dewpoint Depression Visibility Wind Speed Wind Dir Waves Ship Positions

Virginiborg

Last reported at 2015-Jul-01 00:24 UTC. Time now 2015-Jul-02 23:08 UTC.
Position N 43°24' W 003°06'.

Length 132 m; draft 7.8 m.

Type: Cargo ship. MMSI: 244632000.

Date/timePositionNaut miles runAvg speedWind from/ knotsBaromVisibWave heightAir tempDewpointWater temp
2015-Jul-01 00:24N 43°24' W 003°06'0 0.0
2015-Jun-30 19:23N 43°24' W 003°06'0 0.0
2015-Jun-30 18:22N 43°24' W 003°06'0 0.0
2015-Jun-30 17:33N 43°24' W 003°06'  
2015-Jun-26 05:09N 43°21' W 003°02'0 0.1
2015-Jun-26 04:33N 43°21' W 003°02'4 4.2
2015-Jun-26 03:33N 43°24' W 003°06'47 6.7
2015-Jun-25 20:33N 43°45' W 004°04'1110.5
2015-Jun-25 19:29N 43°50' W 004°18'1111.3
2015-Jun-25 18:33N 43°54' W 004°31'1210.7
2015-Jun-25 17:25N 43°59' W 004°46'2111.0
2015-Jun-25 15:33N 44°07' W 005°13'2110.6
2015-Jun-25 13:33N 44°16' W 005°40'1310.1
2015-Jun-25 12:14N 44°21' W 005°57'810.2
2015-Jun-25 11:27N 44°24' W 006°07'9 9.9
2015-Jun-25 10:32N 44°27' W 006°19'  
Track history (hours):
 
Tides and Currents Weather Stations Pressure Air Temp Water Temp Dewpoint Dewpoint Depression Visibility Wind Speed Wind Dir Waves Ship Positions

Virginiborg

Last reported at 2015-Jul-01 00:24 UTC. Time now 2015-Jul-02 23:08 UTC.
Position N 43°24' W 003°06'.

Length 132 m; draft 7.8 m.

Type: Cargo ship. MMSI: 244632000.

Date/timePositionNaut miles runAvg speedWind from/ knotsBaromVisibWave heightAir tempDewpointWater temp
2015-Jul-01 00:24N 43°24' W 003°06'0 0.0
2015-Jun-30 19:23N 43°24' W 003°06'0 0.0
2015-Jun-30 18:22N 43°24' W 003°06'0 0.0
2015-Jun-30 17:33N 43°24' W 003°06'  
2015-Jun-26 05:09N 43°21' W 003°02'0 0.1
2015-Jun-26 04:33N 43°21' W 003°02'4 4.2
2015-Jun-26 03:33N 43°24' W 003°06'47 6.7
2015-Jun-25 20:33N 43°45' W 004°04'1110.5
2015-Jun-25 19:29N 43°50' W 004°18'1111.3
2015-Jun-25 18:33N 43°54' W 004°31'1210.7
2015-Jun-25 17:25N 43°59' W 004°46'2111.0
2015-Jun-25 15:33N 44°07' W 005°13'2110.6
2015-Jun-25 13:33N 44°16' W 005°40'1310.1
2015-Jun-25 12:14N 44°21' W 005°57'810.2
2015-Jun-25 11:27N 44°24' W 006°07'9 9.9
2015-Jun-25 10:32N 44°27' W 006°19'  

Dump ship's entire track history